Pagrindinis puslapis
METAR-TAF:

METAR-TAF

Oro uostai :

Bermuda, Bermuda

platuma: 32-22N, ilguma: 064-41W, Aukštis: 6 m

Dabartinis oras

Ataskaita buvo paskelbta 52 minutes, ne 12:55 UTC
Vėjas 2 kt iš Šiaurės Vakarų
Temperatūra 19°C
Drėgmė 73%
Slėgis 1023 hPa
Matomumas 10 km arba daugiau
Mažai debesys ne aukštis 4500 ft
Išsisklaidę debesys ne aukštis 30000 ft

METAR: TXKF 071255Z 32002KT 9999 FEW045 SCT300 19/14 Q1023

Laikas: 09:47 (13:47 UTC)

Prognozė

Ataskaita buvo paskelbta 2 valandos ir 2 minutes, ne 11:45 UTC
Prognozė galioja nuo 07 metu 12 UTC su 08 metu 12 UTC
Vėjas 5 kt nuo kintamojo kryptimis
Matomumas 10 km arba daugiau
Mažai debesys ne aukštis 4000 ft

TAF: TXKF 071145Z 0712/0812 VRB05KT 9999 FEW040

Orai ataskaitas ir orų prognozės (METAR, TAF).

turimą stotys yra geltonos ir raudonos taškus žemėlapyje.

Perkelti pele per norėdami pamatyti stoties vardą.

Tada spustelėkite, norėdami matyti oro stebėjimo ir prognozės.

Norėdami pakeisti žemėlapį: spustelėkite ant žalios mygtukų su juodo kryžiaus žemyn,; žalią mygtuką su brūkšneliu, jei norite nutolinti; arba žalių rodyklių gretimoms žemėlapius.


METAR-TAF: